Time;durP1;ratioP1;P1;durP2;ratioP2;P2;SDS_P1;SDS_P2;PMS_P1;PMS_P2;Temp;Humidity;BMP_temperature;BMP_pressure;BME280_temperature;BME280_humidity;BME280_pressure;Samples;Min_cycle;Max_cycle;Signal;HPM_P1;HPM_P2
2022/08/17 00:02:05;;;;;;;7.63;4.88;;;20.20;1.00;;;20.70;80.23;99020.78;5019364;28;119362;-70
2022/08/17 00:04:34;;;;;;;8.02;4.40;;;20.20;1.00;;;20.69;80.82;99024.72;5000742;28;130096;-69
2022/08/17 00:07:03;;;;;;;10.35;4.60;;;20.20;1.00;;;20.69;81.09;99025.50;5018891;28;130416;-70
2022/08/17 00:09:32;;;;;;;8.70;5.20;;;20.10;1.00;;;20.72;81.05;99024.72;5019112;28;119575;-70
2022/08/17 00:12:01;;;;;;;7.63;4.90;;;20.10;1.00;;;20.67;81.62;99016.84;5019773;28;119543;-71
2022/08/17 00:14:30;;;;;;;7.40;4.82;;;20.10;1.00;;;20.66;81.75;99020.78;5000649;28;130660;-70
2022/08/17 00:16:59;;;;;;;8.20;5.00;;;20.00;1.00;;;20.64;82.14;99009.31;5018645;28;131421;-71
2022/08/17 00:19:27;;;;;;;8.57;5.43;;;20.00;1.00;;;20.62;82.60;99014.44;5019621;28;122668;-70
2022/08/17 00:21:59;;;;;;;10.10;5.00;;;20.00;1.00;;;20.55;83.06;99009.69;5022901;28;121942;-70
2022/08/17 00:24:28;;;;;;;9.52;5.18;;;19.90;1.00;;;20.46;83.87;99018.34;5022329;28;130368;-69
2022/08/17 00:26:58;;;;;;;11.38;5.43;;;19.90;2.30;;;20.45;84.22;99016.75;5022212;28;128982;-71
2022/08/17 00:29:27;;;;;;;7.60;5.20;;;19.90;5.70;;;20.39;84.46;99010.06;4990803;28;118685;-71
2022/08/17 00:31:55;;;;;;;10.55;5.55;;;19.80;8.00;;;20.42;84.48;99028.56;5022463;28;119927;-71
2022/08/17 00:34:24;;;;;;;11.23;5.57;;;19.80;11.70;;;20.38;84.46;99026.97;5021950;28;129627;-71
2022/08/17 00:36:52;;;;;;;8.18;5.35;;;19.80;11.80;;;20.37;84.50;99028.97;5022228;28;129600;-71
2022/08/17 00:39:21;;;;;;;8.98;4.75;;;19.70;13.40;;;20.34;84.63;99026.97;5022153;28;119287;-71
2022/08/17 00:41:50;;;;;;;10.48;5.10;;;19.70;14.00;;;20.28;85.01;99023.03;5022259;28;119802;-70
2022/08/17 00:44:20;;;;;;;9.35;5.28;;;19.70;14.00;;;20.24;85.19;99023.00;5020633;28;129941;-71
2022/08/17 00:46:49;;;;;;;9.18;5.30;;;19.70;13.30;;;20.26;85.26;99026.16;5006066;28;128554;-71
2022/08/17 00:49:22;;;;;;;8.23;5.28;;;19.70;14.40;;;20.27;85.39;99021.44;5006820;28;119302;-70
2022/08/17 00:51:56;;;;;;;8.13;5.22;;;19.70;16.60;;;20.25;84.86;99015.53;5004012;28;119293;-70
2022/08/17 00:54:29;;;;;;;12.43;5.93;;;19.70;14.10;;;20.24;84.79;99023.00;5022010;28;130983;-70
2022/08/17 00:57:04;;;;;;;9.63;5.13;;;19.70;13.00;;;20.22;84.71;99014.34;5003633;28;130067;-70
2022/08/17 00:59:39;;;;;;;8.05;4.90;;;19.70;12.50;;;20.18;85.02;99023.75;5021943;28;119594;-70
2022/08/17 01:02:12;;;;;;;8.13;4.97;;;19.70;10.50;;;20.21;84.98;99022.97;5022593;28;119263;-71
2022/08/17 01:04:42;;;;;;;8.48;4.47;;;19.60;14.10;;;20.18;84.80;99021.81;5021692;28;130004;-70
2022/08/17 01:07:11;;;;;;;9.57;4.70;;;19.60;16.50;;;20.14;85.26;99022.97;5021668;28;129327;-71
2022/08/17 01:09:41;;;;;;;9.38;5.60;;;19.60;17.90;;;20.02;85.88;99008.34;5012278;28;122212;-70
2022/08/17 01:12:12;;;;;;;7.72;4.95;;;19.50;18.80;;;20.00;85.79;99018.19;5021692;28;122502;-71
2022/08/17 01:14:42;;;;;;;9.80;5.10;;;19.40;21.90;;;19.97;85.73;99005.97;5006336;28;129289;-71
2022/08/17 01:17:11;;;;;;;10.88;5.38;;;19.40;20.90;;;19.96;85.65;99018.19;5006189;28;128691;-71
2022/08/17 01:19:42;;;;;;;9.80;4.90;;;19.40;20.00;;;19.96;85.71;99012.69;5006274;28;118365;-71
2022/08/17 01:22:21;;;;;;;9.50;5.20;;;19.40;23.20;;;19.93;85.51;99014.22;5021771;28;119504;-71
2022/08/17 01:24:56;;;;;;;10.27;5.47;;;19.30;24.20;;;19.90;85.68;99014.22;5021144;28;129671;-71
2022/08/17 01:27:26;;;;;;;11.93;5.60;;;19.30;22.10;;;19.85;85.14;99009.06;5021614;28;129942;-71
2022/08/17 01:29:58;;;;;;;8.90;5.05;;;19.40;16.30;;;19.83;85.98;99009.44;5020851;27;119206;-71
2022/08/17 01:32:29;;;;;;;7.97;5.07;;;19.30;21.20;;;19.82;85.58;99016.16;5021452;28;119523;-71
2022/08/17 01:34:59;;;;;;;9.77;5.07;;;19.30;23.30;;;19.78;86.13;99006.28;5019873;28;130319;-71
2022/08/17 01:37:33;;;;;;;8.73;5.13;;;19.20;25.90;;;19.70;86.68;99010.94;5020811;28;130005;-71
2022/08/17 01:40:09;;;;;;;8.90;5.43;;;19.20;29.00;;;19.67;87.16;99003.44;5021562;28;119549;-71
2022/08/17 01:42:43;;;;;;;8.95;5.22;;;19.10;36.40;;;19.58;87.85;99001.03;5021461;28;120300;-71
2022/08/17 01:45:17;;;;;;;10.52;5.20;;;19.00;41.30;;;19.53;88.19;99006.91;5021060;28;129879;-71
2022/08/17 01:47:46;;;;;;;10.52;5.20;;;19.00;44.40;;;19.48;88.70;99005.31;5021252;28;129742;-70
2022/08/17 01:50:21;;;;;;;7.97;5.30;;;18.90;52.60;;;19.40;89.47;99003.69;5019893;28;119817;-71
2022/08/17 01:52:57;;;;;;;8.02;5.03;;;18.90;58.50;;;19.31;90.03;99004.00;5021329;28;120144;-70
2022/08/17 01:55:32;;;;;;;9.10;5.50;;;18.80;64.20;;;19.26;90.55;99000.81;5020563;28;129890;-70
2022/08/17 01:58:00;;;;;;;9.97;5.20;;;18.80;67.60;;;19.26;90.41;99011.81;5020321;28;130644;-71
2022/08/17 02:00:29;;;;;;;11.57;5.53;;;18.70;70.80;;;19.27;90.47;99005.16;5019624;28;121924;-71
2022/08/17 02:02:57;;;;;;;12.38;5.20;;;18.70;74.30;;;19.21;91.01;99012.97;5020776;28;122750;-70
2022/08/17 02:05:27;;;;;;;8.25;5.68;;;18.60;78.50;;;19.13;91.49;99011.34;5020165;28;129675;-71
2022/08/17 02:07:58;;;;;;;9.30;6.03;;;18.60;79.50;;;19.09;91.74;99011.31;5005592;28;129044;-70
2022/08/17 02:10:27;;;;;;;9.68;5.30;;;18.60;80.90;;;19.00;92.24;99010.84;5020506;28;120029;-72
2022/08/17 02:12:56;;;;;;;10.65;6.03;;;18.60;82.60;;;18.99;92.25;99007.28;5005855;28;118575;-72
2022/08/17 02:15:26;;;;;;;9.60;5.90;;;18.60;83.40;;;18.99;92.56;99012.00;5005561;28;129297;-70
2022/08/17 02:17:54;;;;;;;11.07;5.78;;;18.50;90.30;;;18.94;92.71;99010.41;5022582;28;129229;-71
2022/08/17 02:20:23;;;;;;;8.50;5.85;;;18.50;90.10;;;18.93;92.76;99011.59;5005741;28;118797;-72
2022/08/17 02:22:51;;;;;;;9.43;5.10;;;18.50;92.50;;;18.92;92.86;99012.75;5021098;28;119283;-71
2022/08/17 02:25:22;;;;;;;9.32;5.47;;;18.50;93.30;;;18.87;93.50;99018.59;5019863;28;130446;-69
2022/08/17 02:27:53;;;;;;;8.52;5.70;;;18.40;93.30;;;18.85;93.92;99015.41;5023051;28;129133;-71
2022/08/17 02:30:23;;;;;;;8.90;5.78;;;18.40;94.30;;;18.85;94.15;99023.66;5002588;28;119669;-73
2022/08/17 02:32:53;;;;;;;11.60;5.40;;;18.40;96.70;;;18.84;94.15;99019.31;5020748;28;119527;-71
2022/08/17 02:35:22;;;;;;;13.25;5.55;;;18.30;99.30;;;18.77;94.92;99016.50;5020154;28;130267;-71
2022/08/17 02:37:51;;;;;;;8.82;5.75;;;18.30;99.90;;;18.72;95.17;99014.09;5005139;28;128576;-73
2022/08/17 02:40:21;;;;;;;11.93;6.10;;;18.30;99.90;;;18.60;96.20;99013.19;5005424;28;119637;-71
2022/08/17 02:42:49;;;;;;;9.52;6.05;;;18.20;99.90;;;18.52;96.83;99014.28;5019702;27;119523;-71
2022/08/17 02:45:21;;;;;;;12.48;5.70;;;18.20;99.90;;;18.50;96.96;99006.44;5020019;28;129731;-71
2022/08/17 02:47:50;;;;;;;10.38;6.63;;;18.10;99.90;;;18.50;97.00;99013.88;5020129;28;129669;-72
2022/08/17 02:50:23;;;;;;;10.57;5.60;;;18.10;99.90;;;18.50;97.12;99013.88;5018963;28;122404;-71
2022/08/17 02:52:53;;;;;;;9.63;5.80;;;18.10;99.90;;;18.42;97.48;99013.03;5022068;28;121655;-72
2022/08/17 02:55:26;;;;;;;10.50;5.97;;;18.10;99.90;;;18.43;97.68;99008.31;5019978;28;129875;-71
2022/08/17 02:57:55;;;;;;;13.85;6.53;;;18.10;99.90;;;18.40;97.88;99007.13;5019991;28;129999;-72
2022/08/17 03:00:28;;;;;;;8.13;5.40;;;18.10;99.90;;;18.39;97.92;99013.00;5019988;28;119576;-71
2022/08/17 03:02:57;;;;;;;10.18;5.47;;;18.10;99.90;;;18.41;97.77;99016.16;5020143;28;119263;-70
2022/08/17 03:05:28;;;;;;;8.95;5.88;;;18.10;99.90;;;18.45;97.29;99011.47;5019750;28;130730;-71
2022/08/17 03:07:58;;;;;;;9.93;5.40;;;18.10;99.90;;;18.44;97.44;99004.41;5020148;28;129523;-71
2022/08/17 03:10:29;;;;;;;8.52;5.97;;;18.00;99.90;;;18.42;97.80;99006.75;5001843;28;119194;-71
2022/08/17 03:12:58;;;;;;;10.70;5.90;;;18.10;99.90;;;18.42;97.59;99012.25;5019876;28;119446;-71
2022/08/17 03:15:30;;;;;;;9.82;5.75;;;18.00;99.90;;;18.35;98.02;99006.66;5003628;28;129649;-71
2022/08/17 03:18:00;;;;;;;10.25;5.55;;;18.00;99.90;;;18.36;97.98;99008.25;5019666;28;129554;-71
2022/08/17 03:20:33;;;;;;;11.15;5.70;;;18.00;99.90;;;18.42;97.51;99006.75;5019929;28;119801;-71
2022/08/17 03:23:01;;;;;;;8.88;5.40;;;18.00;99.90;;;18.47;96.75;99000.91;5019944;28;119217;-71
2022/08/17 03:25:35;;;;;;;13.20;5.72;;;17.90;99.90;;;18.49;96.62;99013.06;5004619;28;129181;-71
2022/08/17 03:28:05;;;;;;;11.82;6.25;;;17.90;99.90;;;18.45;96.80;99000.47;5019467;28;129447;-71
2022/08/17 03:30:34;;;;;;;12.60;6.30;;;17.90;99.90;;;18.53;96.21;99006.84;4996989;28;118373;-70
2022/08/17 03:33:08;;;;;;;10.65;5.95;;;17.90;99.90;;;18.52;96.05;99003.31;5019909;28;119180;-70
2022/08/17 03:35:39;;;;;;;8.98;5.20;;;17.90;99.90;;;18.62;95.92;99004.56;5019463;28;131010;-71
2022/08/17 03:38:10;;;;;;;14.23;5.70;;;17.90;99.90;;;18.61;95.99;98998.28;5004242;28;130316;-72
2022/08/17 03:40:40;;;;;;;11.98;5.72;;;18.00;99.90;;;18.74;94.81;98995.28;5018708;28;122154;-71
2022/08/17 03:43:10;;;;;;;10.95;5.90;;;18.00;99.90;;;18.78;94.74;99004.34;5019542;28;121979;-69
2022/08/17 03:57:00;;;;;;;12.48;5.40;;;18.10;99.90;;;18.76;94.61;99004.72;5019643;28;129605;-69
2022/08/17 03:59:29;;;;;;;8.50;5.75;;;18.10;99.90;;;18.78;94.87;98998.84;5020078;28;129404;-69
2022/08/17 04:02:06;;;;;;;10.18;5.40;;;18.10;99.90;;;18.85;94.48;99001.69;5022290;28;120552;-69
2022/08/17 04:04:34;;;;;;;9.88;6.72;;;18.10;99.90;;;18.89;94.51;99002.50;5021499;28;119335;-69
2022/08/17 04:07:03;;;;;;;8.57;4.93;;;18.20;99.90;;;18.96;94.11;99008.03;5021466;28;130395;-70
2022/08/17 04:09:32;;;;;;;10.10;5.60;;;18.30;99.90;;;19.10;93.18;99007.38;4990571;28;128394;-70
2022/08/17 04:12:02;;;;;;;11.65;6.03;;;18.30;99.90;;;19.14;91.92;99007.44;5004498;28;119212;-69
2022/08/17 04:14:35;;;;;;;10.48;5.50;;;18.50;99.90;;;19.24;92.08;99017.69;5014779;28;120002;-69
2022/08/17 04:17:03;;;;;;;10.75;5.28;;;18.60;99.40;;;19.38;91.02;99012.31;5007156;28;128794;-70
2022/08/17 04:19:32;;;;;;;11.48;5.57;;;18.70;93.40;;;19.40;90.16;99004.47;5021999;28;129588;-69
2022/08/17 04:22:00;;;;;;;9.95;5.78;;;18.70;93.40;;;19.52;89.61;99008.06;5022514;28;119630;-69
2022/08/17 04:24:29;;;;;;;11.50;6.57;;;18.80;91.70;;;19.53;89.24;99012.41;5022808;28;120184;-70
2022/08/17 04:26:57;;;;;;;9.15;5.57;;;18.80;87.00;;;19.56;89.13;99000.63;5007144;28;129043;-72
2022/08/17 04:29:27;;;;;;;10.52;5.22;;;18.80;82.10;;;19.65;88.38;99009.34;5007248;28;129079;-70
2022/08/17 04:31:56;;;;;;;9.07;5.40;;;18.90;81.40;;;19.70;88.39;99006.22;4989856;28;121172;-71
2022/08/17 04:34:25;;;;;;;8.15;4.47;;;18.90;80.50;;;19.70;87.44;98994.44;5022321;28;121919;-69
2022/08/17 04:36:55;;;;;;;10.85;5.40;;;18.90;68.40;;;19.67;87.67;98997.94;5022117;28;130650;-70
2022/08/17 04:39:25;;;;;;;9.20;5.32;;;18.90;73.50;;;19.66;87.87;99007.38;5021720;28;129668;-70
2022/08/17 04:42:15;;;;;;;11.70;5.15;;;18.90;70.80;;;19.72;87.81;99003.06;5022331;28;119551;-69
2022/08/17 04:44:45;;;;;;;8.98;5.05;;;19.00;70.60;;;19.84;86.94;99004.75;5022223;28;118982;-70
2022/08/17 04:47:14;;;;;;;7.97;5.35;;;19.00;66.10;;;20.05;86.19;99004.81;5021656;28;130164;-70
2022/08/17 04:49:42;;;;;;;10.05;5.55;;;19.20;60.20;;;20.30;84.70;99009.63;5038550;27;129749;-70
2022/08/17 04:52:10;;;;;;;12.02;5.78;;;19.30;54.00;;;20.43;84.42;99008.09;5042404;27;119769;-70
2022/08/17 04:54:39;;;;;;;10.23;4.70;;;19.40;53.90;;;20.62;83.20;98997.91;5027295;27;119456;-69
2022/08/17 04:57:07;;;;;;;12.18;5.20;;;19.60;36.90;;;20.57;82.10;98996.31;5040347;27;129935;-71
2022/08/17 04:59:36;;;;;;;11.55;4.88;;;19.50;28.20;;;20.46;81.98;99001.81;5042215;27;129676;-71
2022/08/17 05:02:06;;;;;;;9.65;5.07;;;19.60;20.80;;;20.62;81.65;99000.66;5042385;27;119744;-69
2022/08/17 05:04:35;;;;;;;8.32;4.90;;;19.80;18.10;;;20.74;81.29;98994.81;5026743;27;119037;-71
2022/08/17 05:07:04;;;;;;;11.20;5.40;;;19.90;14.90;;;21.02;80.23;99004.28;5040981;27;129861;-72
2022/08/17 05:09:32;;;;;;;11.57;4.70;;;20.10;7.00;;;21.27;78.41;99003.47;5041526;27;129562;-71
2022/08/17 05:12:02;;;;;;;10.88;4.90;;;20.20;2.50;;;21.51;76.80;99001.88;5041777;27;120755;-72
2022/08/17 05:14:30;;;;;;;11.85;4.93;;;20.40;1.00;;;21.82;75.07;99008.50;5042203;27;119951;-69
2022/08/17 05:16:59;;;;;;;9.55;4.63;;;20.60;1.00;;;21.99;74.97;99008.84;5041472;27;129976;-70
2022/08/17 05:19:29;;;;;;;8.68;4.60;;;20.80;1.00;;;22.01;73.12;99000.94;5041376;27;130424;-72
2022/08/17 05:21:58;;;;;;;10.55;4.88;;;20.80;1.00;;;22.13;72.67;99008.78;5040734;27;122956;-71
2022/08/17 05:24:27;;;;;;;8.73;5.22;;;20.80;1.00;;;22.31;71.73;99005.97;5041517;27;122561;-71
2022/08/17 05:26:56;;;;;;;10.13;4.35;;;21.00;1.00;;;22.38;70.97;99010.69;5041419;27;130592;-71
2022/08/17 05:29:24;;;;;;;8.88;4.20;;;21.00;1.00;;;22.77;69.51;99001.34;5040954;27;129570;-73
2022/08/17 05:31:53;;;;;;;8.63;4.80;;;21.30;1.00;;;23.48;68.33;99004.69;5041604;27;120384;-72
2022/08/17 05:34:22;;;;;;;8.80;4.50;;;21.90;1.00;;;24.02;66.10;99004.91;5041330;27;119204;-72
2022/08/17 05:36:51;;;;;;;12.77;5.32;;;22.30;1.00;;;24.29;63.71;99012.50;5026311;27;129316;-72
2022/08/17 05:39:20;;;;;;;9.27;4.35;;;22.40;1.00;;;24.25;63.16;99006.22;5041285;27;129540;-71
2022/08/17 05:41:49;;;;;;;7.78;4.60;;;22.30;1.00;;;24.47;64.65;99005.94;5041742;27;119576;-74
2022/08/17 05:44:17;;;;;;;8.48;4.57;;;22.50;1.00;;;23.98;63.89;99004.19;5043371;27;118998;-74
2022/08/17 05:46:52;;;;;;;7.95;4.25;;;22.10;1.00;;;23.97;64.88;98999.84;5038790;27;130151;-70
2022/08/17 05:49:27;;;;;;;8.23;4.93;;;22.00;1.00;;;24.04;63.57;98999.75;5026715;27;129912;-71
2022/08/17 05:52:21;;;;;;;9.90;4.88;;;22.10;1.00;;;24.06;63.50;99010.44;5021223;28;120651;-71
2022/08/17 05:55:03;;;;;;;8.90;4.53;;;22.20;1.00;;;23.91;64.47;99004.28;5003220;28;119408;-71
2022/08/17 05:57:43;;;;;;;16.73;5.53;;;22.10;1.00;;;24.05;63.96;99004.09;5019702;28;130195;-72
2022/08/17 06:00:19;;;;;;;9.35;4.47;;;22.20;1.00;;;23.94;63.47;98995.13;5005850;28;129127;-71
2022/08/17 06:03:14;;;;;;;9.60;4.57;;;22.30;1.00;;;23.87;64.79;98989.66;5021160;28;119960;-70
2022/08/17 06:06:11;;;;;;;10.30;4.57;;;22.20;1.00;;;24.13;63.72;98988.16;5011574;28;119807;-78
2022/08/17 06:08:49;;;;;;;10.48;4.18;;;22.50;1.00;;;24.02;62.52;98993.84;5020511;28;130007;-73
2022/08/17 06:11:29;;;;;;;9.20;4.22;;;22.50;1.00;;;24.28;62.15;98993.50;5020631;28;129507;-70
2022/08/17 06:14:28;;;;;;;8.57;4.03;;;22.70;1.00;;;24.45;62.29;98991.69;5019547;28;122511;-71
2022/08/17 06:17:04;;;;;;;8.07;4.50;;;22.90;1.00;;;24.80;61.41;99000.72;5020579;27;121799;-72
2022/08/17 06:19:40;;;;;;;8.77;3.80;;;23.20;1.00;;;25.04;59.54;99002.31;5019130;28;130447;-72
2022/08/17 06:22:15;;;;;;;8.73;4.40;;;23.40;1.00;;;25.32;58.68;99003.03;5020699;28;129746;-75
2022/08/17 06:24:50;;;;;;;9.95;4.20;;;23.50;1.00;;;25.41;57.64;98989.38;4990003;28;119350;-71
2022/08/17 06:27:25;;;;;;;14.30;4.47;;;23.60;1.00;;;25.32;57.63;98991.94;5020654;28;119651;-73
2022/08/17 06:29:58;;;;;;;8.98;3.88;;;23.50;1.00;;;25.67;55.74;99000.81;5017175;28;130202;-70
2022/08/17 06:32:27;;;;;;;10.70;4.30;;;23.80;1.00;;;25.77;56.02;98999.03;5009713;28;129811;-70
2022/08/17 06:34:57;;;;;;;11.63;4.10;;;23.80;1.00;;;25.31;55.97;98995.94;5000275;28;119927;-71
2022/08/17 06:38:02;;;;;;;6.50;3.65;;;23.60;1.00;;;25.14;56.34;98997.00;5000129;28;119213;-72
2022/08/17 06:41:00;;;;;;;8.65;3.85;;;23.50;1.00;;;25.08;56.61;98989.16;4999728;28;130153;-71
2022/08/17 06:43:44;;;;;;;8.05;4.38;;;23.50;1.00;;;25.15;56.89;98993.00;4999652;28;129856;-71
2022/08/17 06:46:24;;;;;;;9.13;4.00;;;23.60;1.00;;;25.28;56.70;99000.34;5000246;28;120078;-71
2022/08/17 06:49:08;;;;;;;11.27;4.45;;;23.90;1.00;;;25.26;56.37;99005.50;5007875;28;119463;-72
2022/08/17 06:51:42;;;;;;;8.98;3.72;;;23.80;1.00;;;25.21;55.05;98997.69;5019230;28;130318;-75
2022/08/17 06:54:19;;;;;;;8.73;4.30;;;23.80;1.00;;;25.57;54.70;99008.16;5001567;28;130337;-72
2022/08/17 06:57:06;;;;;;;13.90;3.95;;;24.00;1.00;;;25.61;55.07;99005.31;5020187;28;120367;-71
2022/08/17 06:59:49;;;;;;;15.43;3.88;;;24.00;1.00;;;25.64;54.09;99002.47;5020297;28;119498;-73
2022/08/17 07:02:30;;;;;;;11.90;4.13;;;24.00;1.00;;;25.35;55.17;99007.75;5004996;28;129278;-73
2022/08/17 07:05:00;;;;;;;7.20;4.15;;;23.80;1.00;;;25.13;55.17;98998.97;5007211;28;128676;-70
2022/08/17 07:10:19;;;;;;;10.77;4.45;;;23.70;1.00;;;25.24;56.15;99007.94;5020725;28;121380;-71
2022/08/17 07:12:53;;;;;;;8.85;4.13;;;24.00;1.00;;;25.63;55.01;99012.03;5019845;28;129986;-71
2022/08/17 07:15:41;;;;;;;8.60;4.53;;;24.20;1.00;;;25.82;54.45;99007.69;5021231;28;129758;-71
2022/08/17 07:18:10;;;;;;;12.48;4.13;;;24.40;1.00;;;25.90;54.14;99007.53;5021028;28;120128;-72
2022/08/17 07:20:47;;;;;;;10.85;3.72;;;24.30;1.00;;;26.09;53.82;99004.00;5019761;28;119981;-72
2022/08/17 07:23:22;;;;;;;8.27;4.20;;;24.50;1.00;;;26.09;52.57;99001.22;5004454;28;129746;-70
2022/08/17 07:25:52;;;;;;;8.67;4.20;;;24.60;1.00;;;26.39;51.61;99007.72;5020082;28;130350;-72
2022/08/17 07:28:23;;;;;;;13.40;4.45;;;25.00;1.00;;;26.66;50.18;99003.97;5005159;28;119180;-70
2022/08/17 07:30:54;;;;;;;11.80;4.72;;;25.10;1.00;;;26.99;50.70;99007.56;5023147;28;119904;-72
2022/08/17 07:33:27;;;;;;;12.48;4.60;;;25.30;1.00;;;27.00;50.00;99006.31;5021568;28;130310;-72
2022/08/17 07:35:59;;;;;;;9.40;4.35;;;25.20;1.00;;;27.35;49.22;99000.34;5004805;28;129816;-72
2022/08/17 07:38:29;;;;;;;9.02;4.70;;;25.50;1.00;;;27.07;48.75;99002.59;5023492;28;120170;-71
2022/08/17 07:41:05;;;;;;;11.90;5.15;;;25.20;1.00;;;26.64;49.49;99004.38;5023201;28;119381;-70
2022/08/17 07:43:36;;;;;;;8.70;4.50;;;25.10;1.00;;;26.65;50.28;99000.41;5015286;28;129932;-73
2022/08/17 07:49:35;;;;;;;12.17;4.17;;;25.40;1.00;;;27.23;49.32;99002.56;5025428;28;120403;-72
2022/08/17 07:52:08;;;;;;;9.63;4.35;;;25.60;1.00;;;27.04;49.14;99009.81;5023735;28;119709;-79
2022/08/17 07:54:40;;;;;;;11.50;4.43;;;25.50;1.00;;;26.97;47.97;99003.63;4991513;28;129433;-74
2022/08/17 07:57:34;;;;;;;8.88;4.13;;;25.40;1.00;;;26.83;49.15;98994.44;4991372;28;129079;-72
2022/08/17 08:00:19;;;;;;;9.57;4.03;;;25.50;1.00;;;26.73;48.38;98995.44;5004421;28;121232;-77
2022/08/17 08:03:21;;;;;;;10.73;4.00;;;25.50;1.00;;;27.06;47.21;99001.03;5008324;28;121548;-75
2022/08/17 08:05:55;;;;;;;7.68;4.00;;;25.70;1.00;;;27.44;47.92;98992.09;5008035;28;129167;-78
2022/08/17 08:08:33;;;;;;;12.32;4.68;;;25.90;1.00;;;27.44;46.13;98989.31;5007851;28;128983;-78
2022/08/17 08:11:07;;;;;;;9.20;3.90;;;25.90;1.00;;;27.68;47.38;98995.44;5028715;27;120850;-75
2022/08/17 08:13:41;;;;;;;11.30;4.57;;;26.20;1.00;;;27.79;46.69;98986.78;5045078;27;118972;-74
2022/08/17 08:16:23;;;;;;;7.20;4.25;;;26.20;1.00;;;27.74;46.06;98987.34;5030966;27;129923;-75
2022/08/17 08:18:55;;;;;;;10.88;4.32;;;26.20;1.00;;;27.80;45.93;98985.56;5007514;28;129896;-74
2022/08/17 08:21:36;;;;;;;10.02;4.30;;;26.30;1.00;;;28.08;44.90;98985.97;4991324;28;119244;-74
2022/08/17 08:24:31;;;;;;;8.50;4.13;;;26.50;1.00;;;28.17;44.88;98985.34;5007793;28;118430;-75
2022/08/17 08:27:11;;;;;;;11.13;4.65;;;26.50;1.00;;;27.96;44.00;98988.31;5018694;28;130297;-74
2022/08/17 08:29:52;;;;;;;10.43;4.25;;;26.40;1.00;;;28.06;44.42;98980.06;5028448;27;130027;-76
2022/08/17 08:32:41;;;;;;;12.13;4.20;;;26.40;1.00;;;27.73;43.59;98985.75;5042158;27;120306;-76
2022/08/17 08:35:25;;;;;;;9.43;3.90;;;26.40;1.00;;;28.03;43.69;98980.97;5041931;27;120102;-74
2022/08/17 08:38:04;;;;;;;10.23;4.07;;;26.60;1.00;;;28.26;43.01;98983.44;5042288;27;130355;-75
2022/08/17 08:40:52;;;;;;;11.48;3.58;;;26.80;1.00;;;28.67;42.92;98979.03;5041422;27;129605;-74
2022/08/17 08:43:34;;;;;;;7.65;3.80;;;27.00;1.00;;;29.07;42.76;98971.34;5042374;27;119328;-77
2022/08/17 08:46:15;;;;;;;12.38;3.35;;;27.20;1.00;;;29.11;41.98;98977.59;5042856;27;120145;-75
2022/08/17 08:49:35;;;;;;;9.15;3.72;;;27.30;1.00;;;29.25;41.91;98982.75;5043454;27;129958;-79
2022/08/17 08:52:08;;;;;;;13.07;3.75;;;27.50;1.00;;;28.59;42.50;98982.47;5034827;27;129884;-77
2022/08/17 08:54:44;;;;;;;12.50;4.47;;;27.00;1.00;;;28.46;43.39;98985.25;5041283;27;122181;-76
2022/08/17 08:57:21;;;;;;;8.32;3.30;;;26.90;1.00;;;28.66;42.88;98983.03;5042232;27;121520;-74
2022/08/17 09:00:11;;;;;;;10.13;3.90;;;27.10;1.00;;;28.63;42.83;98985.94;5041965;27;129889;-72
2022/08/17 09:03:14;;;;;;;9.30;3.60;;;27.00;1.00;;;28.69;42.54;98982.13;5042048;27;130104;-75
2022/08/17 09:06:19;;;;;;;7.45;3.47;;;27.10;1.00;;;29.29;41.42;98977.00;5009934;27;118488;-73
2022/08/17 09:09:01;;;;;;;7.97;3.80;;;27.50;1.00;;;29.70;41.92;98989.94;5041896;27;119571;-75
2022/08/17 09:11:39;;;;;;;10.02;3.88;;;27.90;1.00;;;29.50;40.93;98981.06;5040599;27;130270;-73
2022/08/17 09:14:16;;;;;;;10.05;4.18;;;27.70;1.00;;;29.32;41.48;98976.88;5042015;27;129708;-75
2022/08/17 09:16:57;;;;;;;10.27;3.15;;;27.70;1.00;;;29.39;41.33;98993.41;5026527;27;119319;-73
2022/08/17 09:19:35;;;;;;;10.50;3.58;;;27.80;1.00;;;29.67;40.38;98967.69;5041448;27;119364;-73
2022/08/17 09:22:16;;;;;;;10.32;3.80;;;27.80;1.00;;;29.73;41.39;98977.84;5039721;27;129901;-75
2022/08/17 09:24:53;;;;;;;7.45;3.20;;;27.90;1.00;;;30.21;39.95;98966.47;5011499;28;129038;-73
2022/08/17 09:27:27;;;;;;;7.72;4.20;;;28.20;1.00;;;30.15;39.20;98967.53;5021153;28;119548;-74
2022/08/17 09:30:02;;;;;;;8.10;3.83;;;28.10;1.00;;;29.96;40.05;98970.22;5006197;28;118310;-73
2022/08/17 09:32:40;;;;;;;10.07;3.80;;;28.10;1.00;;;29.59;40.64;98972.75;5020977;28;130129;-71
2022/08/17 09:35:16;;;;;;;8.52;3.42;;;27.80;1.00;;;29.46;41.42;98974.84;5020646;28;129602;-74
2022/08/17 09:37:57;;;;;;;6.07;3.45;;;27.80;1.00;;;29.59;41.80;98961.56;5021286;28;119667;-79
2022/08/17 09:40:33;;;;;;;7.72;3.95;;;27.90;1.00;;;29.98;40.87;98959.38;5021622;28;119261;-75
2022/08/17 09:43:08;;;;;;;10.32;3.70;;;28.10;1.00;;;30.11;39.90;98951.66;5020842;28;129938;-74
2022/08/17 09:45:45;;;;;;;9.57;3.57;;;28.20;1.00;;;29.94;40.32;98947.53;5020704;28;130440;-73
2022/08/17 09:48:21;;;;;;;7.65;4.00;;;28.30;1.00;;;29.91;40.13;98959.63;5020862;28;122144;-73
2022/08/17 09:50:59;;;;;;;7.63;3.78;;;28.30;1.00;;;29.98;40.95;98947.41;5020610;27;121931;-76
2022/08/17 09:53:31;;;;;;;12.70;4.30;;;28.40;1.00;;;30.04;39.19;98951.94;5002771;28;129922;-75
2022/08/17 09:56:18;;;;;;;8.50;4.50;;;28.20;1.00;;;30.11;39.71;98948.88;5020720;28;130089;-77
2022/08/17 09:59:22;;;;;;;10.45;4.40;;;28.50;1.00;;;30.08;40.04;98941.41;5020751;28;119649;-78
2022/08/17 10:02:03;;;;;;;7.65;3.85;;;28.40;1.00;;;30.36;40.21;98938.72;5006078;28;118975;-75
2022/08/17 10:04:42;;;;;;;8.52;4.43;;;28.70;1.00;;;30.24;39.77;98950.78;5019915;28;130093;-76
2022/08/17 10:07:18;;;;;;;10.55;4.57;;;28.50;1.00;;;29.84;40.98;98951.50;5020692;28;129885;-75
2022/08/17 10:10:00;;;;;;;6.88;3.90;;;28.30;1.00;;;30.13;40.91;98954.00;5002291;27;119959;-76
2022/08/17 10:12:39;;;;;;;8.65;3.83;;;28.40;1.00;;;30.67;39.27;98953.91;5031465;27;119475;-75
2022/08/17 10:15:26;;;;;;;9.02;3.97;;;28.90;1.00;;;30.66;39.34;98950.34;5038783;27;130009;-72
2022/08/17 10:18:40;;;;;;;10.23;3.65;;;28.80;1.00;;;30.28;39.69;98957.03;5040509;27;129460;-75
2022/08/17 10:27:02;;;;;;;7.30;3.50;;;29.60;1.00;;;32.46;35.07;98948.06;5024614;27;128690;-77
2022/08/17 10:29:38;;;;;;;8.60;3.38;;;30.40;1.00;;;32.65;34.63;98959.25;5040363;27;130630;-75
2022/08/17 10:32:11;;;;;;;7.00;3.03;;;30.30;1.00;;;32.63;34.88;98956.09;5040697;27;119508;-73
2022/08/17 10:35:19;;;;;;;11.32;3.60;;;29.80;1.00;;;33.10;34.88;98951.78;5040837;27;119172;-74
2022/08/17 10:38:27;;;;;;;9.93;3.38;;;30.30;1.00;;;32.86;35.03;98954.56;5024213;27;130357;-74
2022/08/17 10:41:03;;;;;;;8.38;3.17;;;30.40;1.00;;;32.92;36.35;98952.66;5000306;28;128020;-77
2022/08/17 10:43:51;;;;;;;8.63;3.72;;;30.30;1.00;;;33.58;34.60;98960.16;4988356;27;121503;-75
2022/08/17 10:46:28;;;;;;;12.70;3.50;;;30.80;1.00;;;33.52;33.46;98956.44;5020364;28;121360;-74
2022/08/17 10:49:33;;;;;;;6.43;3.17;;;30.90;1.00;;;32.81;33.91;98956.00;5021910;28;130150;-77
2022/08/17 10:52:07;;;;;;;6.97;3.28;;;30.40;1.00;;;33.14;34.00;98958.75;4945504;28;129334;-73
2022/08/17 10:55:12;;;;;;;8.23;3.20;;;30.60;1.00;;;32.68;34.45;98959.06;4940046;28;118740;-74
2022/08/17 10:57:44;;;;;;;7.53;3.70;;;30.20;1.00;;;31.88;36.16;98961.97;4940824;28;119473;-77
2022/08/17 11:01:02;;;;;;;9.80;3.53;;;29.60;1.00;;;31.18;37.83;98951.41;4938156;28;129531;-76
2022/08/17 11:03:32;;;;;;;8.63;3.22;;;29.10;1.00;;;30.92;37.92;98967.69;4938410;28;129830;-73
2022/08/17 11:06:17;;;;;;;6.85;3.28;;;28.90;1.00;;;30.98;37.91;98959.47;4929504;28;118311;-76
2022/08/17 11:09:07;;;;;;;;;;;29.00;1.00;;;31.21;37.75;98960.88;4941875;28;119491;-74
2022/08/17 11:12:14;;;;;;;8.93;3.85;;;29.40;1.00;;;31.73;36.16;98955.44;4942834;28;129162;-72